sensor_id;sensor_type;location;lat;lon;timestamp;P1;durP1;ratioP1;P2;durP2;ratioP2
1004;SDS011;491;53.480;10.174;2024-01-11T00:00:18;33.17;;;17.17;;
1004;SDS011;491;53.480;10.174;2024-01-11T00:02:44;26.73;;;17.00;;
1004;SDS011;491;53.480;10.174;2024-01-11T00:05:10;30.93;;;18.60;;
1004;SDS011;491;53.480;10.174;2024-01-11T00:07:36;33.07;;;18.33;;
1004;SDS011;491;53.480;10.174;2024-01-11T00:10:02;32.97;;;17.40;;
1004;SDS011;491;53.480;10.174;2024-01-11T00:12:28;26.30;;;17.23;;
1004;SDS011;491;53.480;10.174;2024-01-11T00:14:55;30.80;;;17.80;;
1004;SDS011;491;53.480;10.174;2024-01-11T00:17:21;36.67;;;16.90;;
1004;SDS011;491;53.480;10.174;2024-01-11T00:19:46;38.60;;;20.53;;
1004;SDS011;491;53.480;10.174;2024-01-11T00:22:13;33.10;;;18.70;;
1004;SDS011;491;53.480;10.174;2024-01-11T00:24:39;30.37;;;18.87;;
1004;SDS011;491;53.480;10.174;2024-01-11T00:27:06;33.53;;;17.50;;
1004;SDS011;491;53.480;10.174;2024-01-11T00:29:32;38.70;;;19.70;;
1004;SDS011;491;53.480;10.174;2024-01-11T00:31:58;28.40;;;16.60;;
1004;SDS011;491;53.480;10.174;2024-01-11T00:34:24;42.37;;;19.33;;
1004;SDS011;491;53.480;10.174;2024-01-11T00:36:50;30.87;;;17.27;;
1004;SDS011;491;53.480;10.174;2024-01-11T00:39:16;34.03;;;17.47;;
1004;SDS011;491;53.480;10.174;2024-01-11T00:41:41;33.60;;;18.67;;
1004;SDS011;491;53.480;10.174;2024-01-11T00:44:08;33.57;;;18.47;;
1004;SDS011;491;53.480;10.174;2024-01-11T00:46:34;32.53;;;19.50;;
1004;SDS011;491;53.480;10.174;2024-01-11T00:49:00;30.70;;;20.27;;
1004;SDS011;491;53.480;10.174;2024-01-11T00:51:26;36.40;;;20.87;;
1004;SDS011;491;53.480;10.174;2024-01-11T00:53:52;33.13;;;18.07;;
1004;SDS011;491;53.480;10.174;2024-01-11T00:56:18;34.77;;;18.03;;
1004;SDS011;491;53.480;10.174;2024-01-11T00:58:44;36.73;;;19.27;;
1004;SDS011;491;53.480;10.174;2024-01-11T01:01:13;33.20;;;18.83;;
1004;SDS011;491;53.480;10.174;2024-01-11T01:03:39;34.53;;;21.93;;
1004;SDS011;491;53.480;10.174;2024-01-11T01:06:05;39.30;;;21.53;;
1004;SDS011;491;53.480;10.174;2024-01-11T01:08:31;40.33;;;20.47;;
1004;SDS011;491;53.480;10.174;2024-01-11T01:10:57;45.70;;;24.40;;
1004;SDS011;491;53.480;10.174;2024-01-11T01:13:23;41.13;;;22.40;;
1004;SDS011;491;53.480;10.174;2024-01-11T01:15:49;39.10;;;22.47;;
1004;SDS011;491;53.480;10.174;2024-01-11T01:18:15;42.00;;;22.97;;
1004;SDS011;491;53.480;10.174;2024-01-11T01:20:41;47.07;;;22.63;;
1004;SDS011;491;53.480;10.174;2024-01-11T01:23:07;42.77;;;22.80;;
1004;SDS011;491;53.480;10.174;2024-01-11T01:25:33;43.63;;;22.03;;
1004;SDS011;491;53.480;10.174;2024-01-11T01:27:59;40.97;;;21.17;;
1004;SDS011;491;53.480;10.174;2024-01-11T01:30:25;36.33;;;20.23;;
1004;SDS011;491;53.480;10.174;2024-01-11T01:32:51;42.20;;;22.30;;
1004;SDS011;491;53.480;10.174;2024-01-11T01:35:17;39.13;;;21.30;;
1004;SDS011;491;53.480;10.174;2024-01-11T01:37:43;39.13;;;21.00;;
1004;SDS011;491;53.480;10.174;2024-01-11T01:40:09;34.73;;;20.90;;
1004;SDS011;491;53.480;10.174;2024-01-11T01:42:35;40.30;;;20.87;;
1004;SDS011;491;53.480;10.174;2024-01-11T01:45:01;36.37;;;20.10;;
1004;SDS011;491;53.480;10.174;2024-01-11T01:47:27;33.77;;;18.10;;
1004;SDS011;491;53.480;10.174;2024-01-11T01:49:53;35.43;;;19.57;;
1004;SDS011;491;53.480;10.174;2024-01-11T01:52:20;37.20;;;21.67;;
1004;SDS011;491;53.480;10.174;2024-01-11T01:54:47;35.50;;;21.07;;
1004;SDS011;491;53.480;10.174;2024-01-11T01:57:14;37.87;;;20.80;;
1004;SDS011;491;53.480;10.174;2024-01-11T01:59:44;38.57;;;20.83;;
1004;SDS011;491;53.480;10.174;2024-01-11T02:02:11;37.50;;;22.53;;
1004;SDS011;491;53.480;10.174;2024-01-11T02:04:37;33.70;;;20.23;;
1004;SDS011;491;53.480;10.174;2024-01-11T02:07:03;37.57;;;22.87;;
1004;SDS011;491;53.480;10.174;2024-01-11T02:09:36;37.67;;;20.87;;
1004;SDS011;491;53.480;10.174;2024-01-11T02:12:02;37.40;;;20.47;;
1004;SDS011;491;53.480;10.174;2024-01-11T02:14:29;39.40;;;22.23;;
1004;SDS011;491;53.480;10.174;2024-01-11T02:16:55;39.33;;;23.60;;
1004;SDS011;491;53.480;10.174;2024-01-11T02:19:36;37.20;;;22.27;;
1004;SDS011;491;53.480;10.174;2024-01-11T02:22:05;36.07;;;22.40;;
1004;SDS011;491;53.480;10.174;2024-01-11T02:24:32;36.53;;;19.87;;
1004;SDS011;491;53.480;10.174;2024-01-11T02:26:58;40.10;;;24.00;;
1004;SDS011;491;53.480;10.174;2024-01-11T02:29:25;39.87;;;23.87;;
1004;SDS011;491;53.480;10.174;2024-01-11T02:31:51;40.23;;;23.97;;
1004;SDS011;491;53.480;10.174;2024-01-11T02:34:17;40.87;;;23.53;;
1004;SDS011;491;53.480;10.174;2024-01-11T02:36:43;47.00;;;24.70;;
1004;SDS011;491;53.480;10.174;2024-01-11T02:39:09;43.90;;;24.30;;
1004;SDS011;491;53.480;10.174;2024-01-11T02:41:36;43.97;;;22.93;;
1004;SDS011;491;53.480;10.174;2024-01-11T02:44:02;47.63;;;24.63;;
1004;SDS011;491;53.480;10.174;2024-01-11T02:46:29;45.03;;;23.57;;
1004;SDS011;491;53.480;10.174;2024-01-11T02:48:55;41.30;;;24.40;;
1004;SDS011;491;53.480;10.174;2024-01-11T02:51:21;38.00;;;23.33;;
1004;SDS011;491;53.480;10.174;2024-01-11T02:53:47;36.87;;;22.60;;
1004;SDS011;491;53.480;10.174;2024-01-11T02:56:13;40.60;;;22.13;;
1004;SDS011;491;53.480;10.174;2024-01-11T02:58:39;38.10;;;22.03;;
1004;SDS011;491;53.480;10.174;2024-01-11T03:01:05;38.30;;;21.23;;
1004;SDS011;491;53.480;10.174;2024-01-11T03:03:31;36.43;;;22.27;;
1004;SDS011;491;53.480;10.174;2024-01-11T03:05:57;31.53;;;18.10;;
1004;SDS011;491;53.480;10.174;2024-01-11T03:08:23;30.53;;;16.97;;
1004;SDS011;491;53.480;10.174;2024-01-11T03:10:49;27.73;;;14.27;;
1004;SDS011;491;53.480;10.174;2024-01-11T03:13:15;27.60;;;14.87;;
1004;SDS011;491;53.480;10.174;2024-01-11T03:15:41;26.37;;;14.47;;
1004;SDS011;491;53.480;10.174;2024-01-11T03:18:09;24.23;;;13.00;;
1004;SDS011;491;53.480;10.174;2024-01-11T03:20:35;28.03;;;14.80;;
1004;SDS011;491;53.480;10.174;2024-01-11T03:23:01;27.93;;;13.60;;
1004;SDS011;491;53.480;10.174;2024-01-11T03:25:28;28.57;;;15.57;;
1004;SDS011;491;53.480;10.174;2024-01-11T03:27:54;34.63;;;16.80;;
1004;SDS011;491;53.480;10.174;2024-01-11T03:30:20;36.13;;;15.43;;
1004;SDS011;491;53.480;10.174;2024-01-11T03:32:46;29.67;;;13.87;;
1004;SDS011;491;53.480;10.174;2024-01-11T03:35:12;31.93;;;17.10;;
1004;SDS011;491;53.480;10.174;2024-01-11T03:37:38;27.40;;;15.90;;
1004;SDS011;491;53.480;10.174;2024-01-11T03:40:04;32.23;;;18.13;;
1004;SDS011;491;53.480;10.174;2024-01-11T03:42:30;26.87;;;14.47;;
1004;SDS011;491;53.480;10.174;2024-01-11T03:44:56;31.57;;;16.97;;
1004;SDS011;491;53.480;10.174;2024-01-11T03:47:22;35.90;;;17.90;;
1004;SDS011;491;53.480;10.174;2024-01-11T03:49:48;31.50;;;17.07;;
1004;SDS011;491;53.480;10.174;2024-01-11T03:52:14;38.17;;;19.77;;
1004;SDS011;491;53.480;10.174;2024-01-11T03:54:40;36.13;;;16.30;;
1004;SDS011;491;53.480;10.174;2024-01-11T03:57:06;35.63;;;19.57;;
1004;SDS011;491;53.480;10.174;2024-01-11T03:59:32;34.00;;;18.00;;
1004;SDS011;491;53.480;10.174;2024-01-11T04:02:00;31.93;;;17.20;;
1004;SDS011;491;53.480;10.174;2024-01-11T04:04:26;34.67;;;18.00;;
1004;SDS011;491;53.480;10.174;2024-01-11T04:06:52;30.57;;;15.97;;
1004;SDS011;491;53.480;10.174;2024-01-11T04:09:18;37.13;;;19.30;;
1004;SDS011;491;53.480;10.174;2024-01-11T04:11:45;35.33;;;16.90;;
1004;SDS011;491;53.480;10.174;2024-01-11T04:14:11;35.30;;;17.90;;
1004;SDS011;491;53.480;10.174;2024-01-11T04:16:40;37.70;;;18.50;;
1004;SDS011;491;53.480;10.174;2024-01-11T04:19:06;33.97;;;16.50;;
1004;SDS011;491;53.480;10.174;2024-01-11T04:21:32;32.83;;;17.73;;
1004;SDS011;491;53.480;10.174;2024-01-11T04:23:58;34.23;;;18.57;;
1004;SDS011;491;53.480;10.174;2024-01-11T04:26:25;33.83;;;17.90;;
1004;SDS011;491;53.480;10.174;2024-01-11T04:28:51;36.17;;;19.40;;
1004;SDS011;491;53.480;10.174;2024-01-11T04:31:17;30.50;;;16.57;;
1004;SDS011;491;53.480;10.174;2024-01-11T04:33:44;34.27;;;17.13;;
1004;SDS011;491;53.480;10.174;2024-01-11T04:36:10;38.80;;;21.40;;
1004;SDS011;491;53.480;10.174;2024-01-11T04:38:36;38.40;;;19.60;;
1004;SDS011;491;53.480;10.174;2024-01-11T04:41:03;41.77;;;21.63;;
1004;SDS011;491;53.480;10.174;2024-01-11T04:43:32;35.70;;;19.20;;
1004;SDS011;491;53.480;10.174;2024-01-11T04:45:58;45.43;;;19.63;;
1004;SDS011;491;53.480;10.174;2024-01-11T04:48:24;39.07;;;19.80;;
1004;SDS011;491;53.480;10.174;2024-01-11T04:50:50;43.30;;;21.37;;
1004;SDS011;491;53.480;10.174;2024-01-11T04:53:16;39.03;;;19.30;;
1004;SDS011;491;53.480;10.174;2024-01-11T04:55:42;36.37;;;20.33;;
1004;SDS011;491;53.480;10.174;2024-01-11T04:58:08;45.90;;;20.60;;
1004;SDS011;491;53.480;10.174;2024-01-11T05:00:40;43.30;;;22.27;;
1004;SDS011;491;53.480;10.174;2024-01-11T05:03:06;43.80;;;22.77;;
1004;SDS011;491;53.480;10.174;2024-01-11T05:05:31;44.73;;;20.80;;
1004;SDS011;491;53.480;10.174;2024-01-11T05:07:57;47.13;;;25.70;;
1004;SDS011;491;53.480;10.174;2024-01-11T05:10:23;48.17;;;23.03;;
1004;SDS011;491;53.480;10.174;2024-01-11T05:12:49;42.30;;;21.00;;
1004;SDS011;491;53.480;10.174;2024-01-11T05:15:15;46.10;;;23.50;;
1004;SDS011;491;53.480;10.174;2024-01-11T05:17:41;46.70;;;21.27;;
1004;SDS011;491;53.480;10.174;2024-01-11T05:20:08;39.43;;;19.57;;
1004;SDS011;491;53.480;10.174;2024-01-11T05:22:34;40.50;;;21.97;;
1004;SDS011;491;53.480;10.174;2024-01-11T05:25:00;49.23;;;22.63;;
1004;SDS011;491;53.480;10.174;2024-01-11T05:27:26;53.63;;;25.77;;
1004;SDS011;491;53.480;10.174;2024-01-11T05:29:52;42.70;;;22.70;;
1004;SDS011;491;53.480;10.174;2024-01-11T05:32:18;47.60;;;23.10;;
1004;SDS011;491;53.480;10.174;2024-01-11T05:34:44;55.60;;;25.50;;
1004;SDS011;491;53.480;10.174;2024-01-11T05:37:10;50.87;;;25.93;;
1004;SDS011;491;53.480;10.174;2024-01-11T05:39:36;50.53;;;27.40;;
1004;SDS011;491;53.480;10.174;2024-01-11T05:42:02;59.23;;;28.33;;
1004;SDS011;491;53.480;10.174;2024-01-11T05:44:28;55.73;;;25.17;;
1004;SDS011;491;53.480;10.174;2024-01-11T05:46:54;53.57;;;27.20;;
1004;SDS011;491;53.480;10.174;2024-01-11T05:49:19;55.00;;;26.93;;
1004;SDS011;491;53.480;10.174;2024-01-11T05:51:46;60.23;;;27.70;;
1004;SDS011;491;53.480;10.174;2024-01-11T05:54:33;59.63;;;30.27;;
1004;SDS011;491;53.480;10.174;2024-01-11T05:56:58;57.90;;;30.13;;
1004;SDS011;491;53.480;10.174;2024-01-11T05:59:33;57.20;;;27.63;;
1004;SDS011;491;53.480;10.174;2024-01-11T06:01:59;61.50;;;29.73;;
1004;SDS011;491;53.480;10.174;2024-01-11T06:04:26;53.10;;;24.33;;
1004;SDS011;491;53.480;10.174;2024-01-11T06:06:52;49.70;;;24.90;;
1004;SDS011;491;53.480;10.174;2024-01-11T06:09:18;51.57;;;24.20;;
1004;SDS011;491;53.480;10.174;2024-01-11T06:11:44;55.73;;;27.70;;
1004;SDS011;491;53.480;10.174;2024-01-11T06:14:10;57.83;;;27.47;;
1004;SDS011;491;53.480;10.174;2024-01-11T06:16:36;56.90;;;28.97;;
1004;SDS011;491;53.480;10.174;2024-01-11T06:19:02;56.43;;;30.20;;
1004;SDS011;491;53.480;10.174;2024-01-11T06:21:27;54.40;;;27.63;;
1004;SDS011;491;53.480;10.174;2024-01-11T06:23:53;56.77;;;27.07;;
1004;SDS011;491;53.480;10.174;2024-01-11T06:26:19;45.57;;;26.10;;
1004;SDS011;491;53.480;10.174;2024-01-11T06:28:45;62.93;;;28.97;;
1004;SDS011;491;53.480;10.174;2024-01-11T06:31:11;54.23;;;28.40;;
1004;SDS011;491;53.480;10.174;2024-01-11T06:33:37;55.43;;;28.73;;
1004;SDS011;491;53.480;10.174;2024-01-11T06:36:06;64.57;;;28.93;;
1004;SDS011;491;53.480;10.174;2024-01-11T06:38:35;48.13;;;25.10;;
1004;SDS011;491;53.480;10.174;2024-01-11T06:41:01;49.70;;;25.73;;
1004;SDS011;491;53.480;10.174;2024-01-11T06:43:27;53.00;;;29.20;;
1004;SDS011;491;53.480;10.174;2024-01-11T06:45:53;50.30;;;25.67;;
1004;SDS011;491;53.480;10.174;2024-01-11T06:48:19;55.10;;;26.50;;
1004;SDS011;491;53.480;10.174;2024-01-11T06:50:45;54.87;;;26.53;;
1004;SDS011;491;53.480;10.174;2024-01-11T06:53:11;50.90;;;25.00;;
1004;SDS011;491;53.480;10.174;2024-01-11T06:55:37;51.40;;;25.40;;
1004;SDS011;491;53.480;10.174;2024-01-11T06:58:06;47.43;;;25.23;;
1004;SDS011;491;53.480;10.174;2024-01-11T07:00:31;47.20;;;24.33;;
1004;SDS011;491;53.480;10.174;2024-01-11T07:02:57;47.77;;;23.40;;
1004;SDS011;491;53.480;10.174;2024-01-11T07:05:23;40.23;;;21.13;;
1004;SDS011;491;53.480;10.174;2024-01-11T07:07:49;40.33;;;21.40;;
1004;SDS011;491;53.480;10.174;2024-01-11T07:10:15;37.50;;;19.87;;
1004;SDS011;491;53.480;10.174;2024-01-11T07:12:45;36.60;;;20.10;;
1004;SDS011;491;53.480;10.174;2024-01-11T07:15:12;46.63;;;22.53;;
1004;SDS011;491;53.480;10.174;2024-01-11T07:17:39;38.50;;;18.57;;
1004;SDS011;491;53.480;10.174;2024-01-11T07:20:06;38.27;;;19.13;;
1004;SDS011;491;53.480;10.174;2024-01-11T07:22:32;35.93;;;19.80;;
1004;SDS011;491;53.480;10.174;2024-01-11T07:24:58;35.07;;;17.40;;
1004;SDS011;491;53.480;10.174;2024-01-11T07:27:24;30.23;;;14.80;;
1004;SDS011;491;53.480;10.174;2024-01-11T07:33:05;36.60;;;17.40;;
1004;SDS011;491;53.480;10.174;2024-01-11T07:35:30;36.97;;;18.47;;
1004;SDS011;491;53.480;10.174;2024-01-11T07:40:57;32.90;;;15.23;;
1004;SDS011;491;53.480;10.174;2024-01-11T07:43:23;30.50;;;15.77;;
1004;SDS011;491;53.480;10.174;2024-01-11T07:46:00;28.10;;;14.50;;
1004;SDS011;491;53.480;10.174;2024-01-11T07:48:26;36.67;;;15.80;;
1004;SDS011;491;53.480;10.174;2024-01-11T07:50:52;33.50;;;15.80;;
1004;SDS011;491;53.480;10.174;2024-01-11T07:53:18;28.80;;;14.63;;
1004;SDS011;491;53.480;10.174;2024-01-11T07:55:44;35.47;;;15.67;;
1004;SDS011;491;53.480;10.174;2024-01-11T07:58:16;38.37;;;16.00;;
1004;SDS011;491;53.480;10.174;2024-01-11T08:00:42;35.20;;;14.97;;
1004;SDS011;491;53.480;10.174;2024-01-11T08:03:08;29.47;;;15.17;;
1004;SDS011;491;53.480;10.174;2024-01-11T08:05:34;31.93;;;15.60;;
1004;SDS011;491;53.480;10.174;2024-01-11T08:08:00;30.70;;;14.63;;
1004;SDS011;491;53.480;10.174;2024-01-11T08:10:28;33.33;;;13.93;;
1004;SDS011;491;53.480;10.174;2024-01-11T08:16:08;40.93;;;19.30;;
1004;SDS011;491;53.480;10.174;2024-01-11T08:18:43;28.00;;;13.40;;
1004;SDS011;491;53.480;10.174;2024-01-11T08:21:10;27.50;;;12.70;;
1004;SDS011;491;53.480;10.174;2024-01-11T08:23:37;34.30;;;11.70;;
1004;SDS011;491;53.480;10.174;2024-01-11T08:26:09;41.47;;;16.57;;
1004;SDS011;491;53.480;10.174;2024-01-11T08:28:35;33.10;;;14.63;;
1004;SDS011;491;53.480;10.174;2024-01-11T08:31:01;32.20;;;14.30;;
1004;SDS011;491;53.480;10.174;2024-01-11T08:33:33;24.40;;;12.17;;
1004;SDS011;491;53.480;10.174;2024-01-11T08:36:01;28.27;;;12.67;;
1004;SDS011;491;53.480;10.174;2024-01-11T08:38:28;29.73;;;11.27;;
1004;SDS011;491;53.480;10.174;2024-01-11T08:40:54;27.10;;;11.50;;
1004;SDS011;491;53.480;10.174;2024-01-11T08:43:20;27.73;;;12.50;;
1004;SDS011;491;53.480;10.174;2024-01-11T08:45:46;24.63;;;11.37;;
1004;SDS011;491;53.480;10.174;2024-01-11T08:48:13;29.93;;;13.67;;
1004;SDS011;491;53.480;10.174;2024-01-11T08:50:40;31.40;;;13.23;;
1004;SDS011;491;53.480;10.174;2024-01-11T08:53:06;28.60;;;11.57;;
1004;SDS011;491;53.480;10.174;2024-01-11T08:55:32;33.13;;;14.60;;
1004;SDS011;491;53.480;10.174;2024-01-11T08:57:58;28.30;;;14.13;;
1004;SDS011;491;53.480;10.174;2024-01-11T09:00:26;31.53;;;13.80;;
1004;SDS011;491;53.480;10.174;2024-01-11T09:02:52;31.83;;;14.80;;
1004;SDS011;491;53.480;10.174;2024-01-11T09:05:17;27.33;;;12.30;;
1004;SDS011;491;53.480;10.174;2024-01-11T09:07:43;33.50;;;15.60;;
1004;SDS011;491;53.480;10.174;2024-01-11T09:10:09;33.80;;;13.60;;
1004;SDS011;491;53.480;10.174;2024-01-11T09:12:38;26.27;;;11.90;;
1004;SDS011;491;53.480;10.174;2024-01-11T09:15:05;24.97;;;12.43;;
1004;SDS011;491;53.480;10.174;2024-01-11T09:17:31;28.67;;;11.57;;
1004;SDS011;491;53.480;10.174;2024-01-11T09:19:57;25.87;;;11.23;;
1004;SDS011;491;53.480;10.174;2024-01-11T09:22:23;31.97;;;14.17;;
1004;SDS011;491;53.480;10.174;2024-01-11T09:24:49;38.97;;;16.40;;
1004;SDS011;491;53.480;10.174;2024-01-11T09:27:15;32.00;;;13.27;;
1004;SDS011;491;53.480;10.174;2024-01-11T09:29:44;32.33;;;14.17;;
1004;SDS011;491;53.480;10.174;2024-01-11T09:32:10;26.20;;;11.23;;
1004;SDS011;491;53.480;10.174;2024-01-11T09:34:36;31.37;;;13.90;;
1004;SDS011;491;53.480;10.174;2024-01-11T09:37:02;26.97;;;12.97;;
1004;SDS011;491;53.480;10.174;2024-01-11T09:39:32;27.50;;;10.60;;
1004;SDS011;491;53.480;10.174;2024-01-11T09:41:59;31.60;;;13.37;;
1004;SDS011;491;53.480;10.174;2024-01-11T09:44:27;28.07;;;10.70;;
1004;SDS011;491;53.480;10.174;2024-01-11T09:46:53;24.47;;;10.87;;
1004;SDS011;491;53.480;10.174;2024-01-11T09:49:20;23.50;;;11.90;;
1004;SDS011;491;53.480;10.174;2024-01-11T09:51:48;27.10;;;11.53;;
1004;SDS011;491;53.480;10.174;2024-01-11T09:54:14;25.40;;;11.20;;
1004;SDS011;491;53.480;10.174;2024-01-11T09:56:41;24.23;;;12.40;;
1004;SDS011;491;53.480;10.174;2024-01-11T09:59:07;32.30;;;12.27;;
1004;SDS011;491;53.480;10.174;2024-01-11T10:01:34;20.17;;;10.40;;
1004;SDS011;491;53.480;10.174;2024-01-11T10:04:01;26.33;;;12.50;;
1004;SDS011;491;53.480;10.174;2024-01-11T10:06:27;26.27;;;11.43;;
1004;SDS011;491;53.480;10.174;2024-01-11T10:08:53;27.57;;;13.53;;
1004;SDS011;491;53.480;10.174;2024-01-11T10:11:19;28.27;;;12.60;;
1004;SDS011;491;53.480;10.174;2024-01-11T10:13:45;25.50;;;10.40;;
1004;SDS011;491;53.480;10.174;2024-01-11T10:16:12;20.53;;;8.90;;
1004;SDS011;491;53.480;10.174;2024-01-11T10:18:41;21.60;;;10.10;;
1004;SDS011;491;53.480;10.174;2024-01-11T10:21:07;24.30;;;10.40;;
1004;SDS011;491;53.480;10.174;2024-01-11T10:23:37;20.00;;;10.33;;
1004;SDS011;491;53.480;10.174;2024-01-11T10:26:04;27.57;;;12.83;;
1004;SDS011;491;53.480;10.174;2024-01-11T10:28:31;33.80;;;14.20;;
1004;SDS011;491;53.480;10.174;2024-01-11T10:30:57;35.60;;;14.87;;
1004;SDS011;491;53.480;10.174;2024-01-11T10:33:24;36.77;;;13.37;;
1004;SDS011;491;53.480;10.174;2024-01-11T10:35:50;29.10;;;11.90;;
1004;SDS011;491;53.480;10.174;2024-01-11T10:38:16;24.10;;;10.90;;
1004;SDS011;491;53.480;10.174;2024-01-11T10:40:43;20.03;;;8.73;;
1004;SDS011;491;53.480;10.174;2024-01-11T10:43:09;22.30;;;9.20;;
1004;SDS011;491;53.480;10.174;2024-01-11T10:45:40;22.77;;;9.20;;
1004;SDS011;491;53.480;10.174;2024-01-11T10:48:13;18.33;;;7.90;;
1004;SDS011;491;53.480;10.174;2024-01-11T10:50:42;15.00;;;6.70;;
1004;SDS011;491;53.480;10.174;2024-01-11T10:55:55;23.90;;;9.57;;
1004;SDS011;491;53.480;10.174;2024-01-11T10:58:23;18.73;;;10.00;;
1004;SDS011;491;53.480;10.174;2024-01-11T11:00:50;23.10;;;9.97;;
1004;SDS011;491;53.480;10.174;2024-01-11T11:03:19;19.27;;;10.03;;
1004;SDS011;491;53.480;10.174;2024-01-11T11:05:45;19.70;;;9.50;;
1004;SDS011;491;53.480;10.174;2024-01-11T11:08:14;20.83;;;12.30;;
1004;SDS011;491;53.480;10.174;2024-01-11T11:10:40;24.97;;;11.50;;
1004;SDS011;491;53.480;10.174;2024-01-11T11:13:08;22.57;;;11.93;;
1004;SDS011;491;53.480;10.174;2024-01-11T11:15:34;25.23;;;11.57;;
1004;SDS011;491;53.480;10.174;2024-01-11T11:18:02;22.83;;;14.37;;
1004;SDS011;491;53.480;10.174;2024-01-11T11:20:30;28.73;;;13.33;;
1004;SDS011;491;53.480;10.174;2024-01-11T11:23:07;30.33;;;14.70;;
1004;SDS011;491;53.480;10.174;2024-01-11T11:25:34;29.43;;;12.90;;
1004;SDS011;491;53.480;10.174;2024-01-11T11:28:03;28.70;;;13.40;;
1004;SDS011;491;53.480;10.174;2024-01-11T11:30:30;31.90;;;15.40;;
1004;SDS011;491;53.480;10.174;2024-01-11T11:32:56;36.60;;;17.07;;
1004;SDS011;491;53.480;10.174;2024-01-11T11:35:25;38.93;;;16.40;;
1004;SDS011;491;53.480;10.174;2024-01-11T11:37:57;30.20;;;14.70;;
1004;SDS011;491;53.480;10.174;2024-01-11T11:40:33;38.83;;;17.23;;
1004;SDS011;491;53.480;10.174;2024-01-11T11:43:02;36.83;;;15.87;;
1004;SDS011;491;53.480;10.174;2024-01-11T11:45:29;38.53;;;16.70;;
1004;SDS011;491;53.480;10.174;2024-01-11T11:47:56;41.77;;;18.77;;
1004;SDS011;491;53.480;10.174;2024-01-11T11:50:22;41.77;;;16.43;;
1004;SDS011;491;53.480;10.174;2024-01-11T11:52:53;36.60;;;16.67;;
1004;SDS011;491;53.480;10.174;2024-01-11T11:55:19;37.17;;;19.07;;
1004;SDS011;491;53.480;10.174;2024-01-11T11:57:46;40.07;;;17.77;;
1004;SDS011;491;53.480;10.174;2024-01-11T12:00:13;34.33;;;17.83;;
1004;SDS011;491;53.480;10.174;2024-01-11T12:02:40;44.30;;;19.27;;
1004;SDS011;491;53.480;10.174;2024-01-11T12:05:07;40.57;;;18.53;;
1004;SDS011;491;53.480;10.174;2024-01-11T12:07:33;40.50;;;20.67;;
1004;SDS011;491;53.480;10.174;2024-01-11T12:09:59;45.77;;;20.37;;
1004;SDS011;491;53.480;10.174;2024-01-11T12:12:25;37.07;;;18.70;;
1004;SDS011;491;53.480;10.174;2024-01-11T12:14:52;45.73;;;21.63;;
1004;SDS011;491;53.480;10.174;2024-01-11T12:17:18;40.30;;;20.50;;
1004;SDS011;491;53.480;10.174;2024-01-11T12:19:44;40.03;;;20.17;;
1004;SDS011;491;53.480;10.174;2024-01-11T12:22:10;48.50;;;20.70;;
1004;SDS011;491;53.480;10.174;2024-01-11T12:24:36;37.10;;;16.30;;
1004;SDS011;491;53.480;10.174;2024-01-11T12:27:05;41.00;;;20.63;;
1004;SDS011;491;53.480;10.174;2024-01-11T12:29:31;41.73;;;20.93;;
1004;SDS011;491;53.480;10.174;2024-01-11T12:31:57;40.17;;;17.80;;
1004;SDS011;491;53.480;10.174;2024-01-11T12:34:27;42.40;;;19.80;;
1004;SDS011;491;53.480;10.174;2024-01-11T12:36:53;39.63;;;19.60;;
1004;SDS011;491;53.480;10.174;2024-01-11T12:39:20;42.37;;;18.67;;
1004;SDS011;491;53.480;10.174;2024-01-11T12:41:48;44.80;;;21.00;;
1004;SDS011;491;53.480;10.174;2024-01-11T12:44:14;45.83;;;20.03;;
1004;SDS011;491;53.480;10.174;2024-01-11T12:46:40;41.67;;;19.63;;
1004;SDS011;491;53.480;10.174;2024-01-11T12:49:08;45.87;;;20.70;;
1004;SDS011;491;53.480;10.174;2024-01-11T12:51:35;45.67;;;19.47;;
1004;SDS011;491;53.480;10.174;2024-01-11T12:54:01;43.60;;;20.27;;
1004;SDS011;491;53.480;10.174;2024-01-11T12:56:29;38.80;;;19.77;;
1004;SDS011;491;53.480;10.174;2024-01-11T12:59:07;45.63;;;18.03;;
1004;SDS011;491;53.480;10.174;2024-01-11T13:01:34;36.50;;;19.20;;
1004;SDS011;491;53.480;10.174;2024-01-11T13:04:00;45.33;;;19.40;;
1004;SDS011;491;53.480;10.174;2024-01-11T13:06:27;39.73;;;18.20;;
1004;SDS011;491;53.480;10.174;2024-01-11T13:08:54;44.57;;;19.57;;
1004;SDS011;491;53.480;10.174;2024-01-11T13:11:21;32.77;;;16.80;;
1004;SDS011;491;53.480;10.174;2024-01-11T13:13:49;45.10;;;19.00;;
1004;SDS011;491;53.480;10.174;2024-01-11T13:16:16;45.20;;;21.27;;
1004;SDS011;491;53.480;10.174;2024-01-11T13:18:43;33.00;;;17.43;;
1004;SDS011;491;53.480;10.174;2024-01-11T13:21:09;41.13;;;18.50;;
1004;SDS011;491;53.480;10.174;2024-01-11T13:23:37;39.23;;;19.17;;
1004;SDS011;491;53.480;10.174;2024-01-11T13:26:03;40.57;;;20.40;;
1004;SDS011;491;53.480;10.174;2024-01-11T13:28:29;38.40;;;20.00;;
1004;SDS011;491;53.480;10.174;2024-01-11T13:30:55;36.53;;;19.17;;
1004;SDS011;491;53.480;10.174;2024-01-11T13:33:22;40.20;;;18.90;;
1004;SDS011;491;53.480;10.174;2024-01-11T13:35:48;35.73;;;18.60;;
1004;SDS011;491;53.480;10.174;2024-01-11T13:38:15;32.33;;;16.80;;
1004;SDS011;491;53.480;10.174;2024-01-11T13:40:41;41.90;;;18.67;;
1004;SDS011;491;53.480;10.174;2024-01-11T13:43:08;40.00;;;19.03;;
1004;SDS011;491;53.480;10.174;2024-01-11T13:45:34;42.13;;;17.70;;
1004;SDS011;491;53.480;10.174;2024-01-11T13:48:04;37.40;;;18.17;;
1004;SDS011;491;53.480;10.174;2024-01-11T13:50:30;35.70;;;17.70;;
1004;SDS011;491;53.480;10.174;2024-01-11T13:52:57;40.10;;;17.83;;
1004;SDS011;491;53.480;10.174;2024-01-11T13:55:23;36.90;;;16.77;;
1004;SDS011;491;53.480;10.174;2024-01-11T13:57:49;34.17;;;16.13;;
1004;SDS011;491;53.480;10.174;2024-01-11T14:00:16;33.53;;;18.30;;
1004;SDS011;491;53.480;10.174;2024-01-11T14:02:43;30.00;;;16.97;;
1004;SDS011;491;53.480;10.174;2024-01-11T14:05:10;38.10;;;18.40;;
1004;SDS011;491;53.480;10.174;2024-01-11T14:07:38;32.70;;;17.07;;
1004;SDS011;491;53.480;10.174;2024-01-11T14:10:04;32.90;;;16.83;;
1004;SDS011;491;53.480;10.174;2024-01-11T14:12:31;35.00;;;18.23;;
1004;SDS011;491;53.480;10.174;2024-01-11T14:14:57;33.67;;;15.00;;
1004;SDS011;491;53.480;10.174;2024-01-11T14:17:23;34.63;;;18.37;;
1004;SDS011;491;53.480;10.174;2024-01-11T14:19:49;40.97;;;19.73;;
1004;SDS011;491;53.480;10.174;2024-01-11T14:22:15;39.17;;;19.90;;
1004;SDS011;491;53.480;10.174;2024-01-11T14:24:41;35.40;;;16.90;;
1004;SDS011;491;53.480;10.174;2024-01-11T14:27:08;34.67;;;17.30;;
1004;SDS011;491;53.480;10.174;2024-01-11T14:29:34;30.20;;;17.20;;
1004;SDS011;491;53.480;10.174;2024-01-11T14:32:00;31.30;;;16.70;;
1004;SDS011;491;53.480;10.174;2024-01-11T14:34:26;39.50;;;15.57;;
1004;SDS011;491;53.480;10.174;2024-01-11T14:36:52;38.80;;;17.40;;
1004;SDS011;491;53.480;10.174;2024-01-11T14:39:18;33.27;;;17.77;;
1004;SDS011;491;53.480;10.174;2024-01-11T14:41:44;31.70;;;17.57;;
1004;SDS011;491;53.480;10.174;2024-01-11T14:44:10;30.10;;;15.80;;
1004;SDS011;491;53.480;10.174;2024-01-11T14:46:36;26.87;;;15.40;;
1004;SDS011;491;53.480;10.174;2024-01-11T14:49:02;34.17;;;16.00;;
1004;SDS011;491;53.480;10.174;2024-01-11T14:51:29;38.13;;;17.07;;
1004;SDS011;491;53.480;10.174;2024-01-11T14:53:58;32.50;;;17.37;;
1004;SDS011;491;53.480;10.174;2024-01-11T14:56:24;32.37;;;16.57;;